首页
METAR-TAF:

METAR-TAF

机场 :

萊巴嫩, 新罕布什尔州, 美国

纬度: 43-37-38N, 经度: 072-18-21W, 海拔: 182米

当前天气观测

该预报发布于15分钟前的13:53 UTC
风速7节,风向北转西北,在西北之间变化
温度 26°C
湿度 61%
气压 1012 hPa
能見度: 16.1公里
少量云层高于1700英尺
散云层高于2500英尺
多云层高于8000英尺

METAR: KLEB 181353Z 34007KT 310V010 10SM FEW017 SCT025 BKN080 26/18 A2987 RMK AO2 SLP101 T02610178

时间: 10:08 (14:08 UTC)

预报

该预报发布于2小时和48分钟前的11:20 UTC
预报有效从18日的 12点(UTC)到 19日的 12点(UTC)
风速8节,风向西转西北
能見度: 10公里
散云层高于25000英尺
从 18日的 1800点(UTC)
风速10节,风向西,有时为19节阵风
能見度: 10公里
天空无云
从 19日的 0100点(UTC)
风速3节,风向多变
能見度: 10公里
天空无云

TAF: KLEB 181120Z 1812/1912 29008KT P6SM SCT250 FM181800 28010G19KT P6SM SKC FM190100 VRB03KT P6SM SKC

超过4000个机场的气象观测和天气预报(METAR&TAF报告)。

可查询的气象台以黄色和红色小点在地图上表示。

将鼠标移到小点上方,可查看气象台名称。

然后点击查看天气观测和预报。

如需切换地图:点击带黑十字的绿色按钮放大地图;点击带横线的绿色按钮缩小地图;或者点击绿色箭头查看邻近地区的地图。


METAR-TAF: